Vision — WDF6306 — position and weather

sailwx.info

Track history (hours):
 
Tides and Currents Weather Stations Pressure Air Temp Water Temp Dewpoint Dewpoint Depression Visibility Wind Speed Wind Dir Waves Ship Positions

Vision

Owner: INTREPID SHIP MANAGEMENT, JACKSONVILLE, FL. More information available from US FCC via Universal Licensing System and Coast Guard Vessel Documentation Center.

Last reported at 2016-Dec-05 01:34 UTC. Time now 2016-Dec-05 02:31 UTC.
Position N 45°50' W 124°34'.

Length 199 m; draft 7.9 m.

Type: Towing. MMSI: 366904000.

Date/timePositionNaut miles runAvg speedWind from/ knotsBaromVisibWave heightAir tempDewpointWater temp
2016-Dec-05 01:34N 45°50' W 124°34'1111.5
2016-Dec-05 00:34N 45°59' W 124°23'1211.8
2016-Dec-04 23:34N 46°08' W 124°13'9 9.0
2016-Dec-04 22:34N 46°15' W 124°05'10 9.8
2016-Dec-04 21:34N 46°12' W 123°51'1110.9
2016-Dec-04 20:34N 46°15' W 123°37'1010.0
2016-Dec-04 19:33N 46°10' W 123°25'1212.4
2016-Dec-04 18:34N 46°11' W 123°07'1212.1
2016-Dec-04 17:34N 46°03' W 122°53'1212.1
2016-Dec-04 16:34N 45°52' W 122°47'1312.5
2016-Dec-04 15:33N 45°40' W 122°46'3 3.2
2016-Dec-04 14:31N 45°36' W 122°47'0 0.0
2016-Dec-04 13:31N 45°36' W 122°47'0 0.0
2016-Dec-04 12:31N 45°36' W 122°47'0 0.0
2016-Dec-04 11:31N 45°36' W 122°47'0 0.0
2016-Dec-04 10:28N 45°36' W 122°47'0 0.0
2016-Dec-04 09:31N 45°36' W 122°47'0 0.0
2016-Dec-04 08:31N 45°36' W 122°47'0 0.0
2016-Dec-04 07:31N 45°36' W 122°47'0 0.0
2016-Dec-04 06:31N 45°36' W 122°47'0 0.0
2016-Dec-04 05:31N 45°36' W 122°47'0 0.0
2016-Dec-04 04:31N 45°36' W 122°47'0 0.0
2016-Dec-04 03:31N 45°36' W 122°47'0 0.0
2016-Dec-04 02:31N 45°36' W 122°47'0 0.0
2016-Dec-04 01:31N 45°36' W 122°47'0 0.0
2016-Dec-04 00:31N 45°36' W 122°47'0 0.0
2016-Dec-03 23:31N 45°36' W 122°47'0 0.0
2016-Dec-03 22:31N 45°36' W 122°47'0 0.0
2016-Dec-03 21:31N 45°36' W 122°47'0 0.0
2016-Dec-03 20:31N 45°36' W 122°47'0 0.0
2016-Dec-03 19:31N 45°36' W 122°47'0 0.0
2016-Dec-03 18:31N 45°36' W 122°47'0 0.0
2016-Dec-03 17:31N 45°36' W 122°47'0 0.0
2016-Dec-03 16:33N 45°36' W 122°47'0 0.0
2016-Dec-03 15:31N 45°36' W 122°47'0 0.0
2016-Dec-03 14:31N 45°36' W 122°47'0 0.0
2016-Dec-03 13:32N 45°36' W 122°47'0 0.0
2016-Dec-03 12:31N 45°36' W 122°47'0 0.0
2016-Dec-03 11:31N 45°36' W 122°47'0 0.0
2016-Dec-03 10:31N 45°36' W 122°47'3 2.8
2016-Dec-03 09:31N 45°34' W 122°44'0 0.2
2016-Dec-03 08:31N 45°34' W 122°44'0 0.0
2016-Dec-03 07:31N 45°34' W 122°44'0 0.0
2016-Dec-03 06:31N 45°34' W 122°44'0 0.0
2016-Dec-03 05:31N 45°34' W 122°44'0 0.0
2016-Dec-03 04:28N 45°34' W 122°44'0 0.0
2016-Dec-03 03:31N 45°34' W 122°44'0 0.0
2016-Dec-03 02:28N 45°34' W 122°44'0 0.0
2016-Dec-03 01:28N 45°34' W 122°44'0 0.0
2016-Dec-03 00:34N 45°34' W 122°44'0 0.0
2016-Dec-02 23:34N 45°34' W 122°44'0 0.0
2016-Dec-02 22:33N 45°34' W 122°44'0 0.0
2016-Dec-02 21:34N 45°34' W 122°44'0 0.0
2016-Dec-02 20:33N 45°34' W 122°44'0 0.0
2016-Dec-02 19:33N 45°34' W 122°44'0 0.0
2016-Dec-02 18:33N 45°34' W 122°44'0 0.0
2016-Dec-02 17:33N 45°34' W 122°44'0 0.3
2016-Dec-02 16:34N 45°34' W 122°44'2 2.1
2016-Dec-02 15:33N 45°36' W 122°47'1 1.0
2016-Dec-02 14:34N 45°37' W 122°47'9 9.1
2016-Dec-02 13:34N 45°46' W 122°46'1010.0
2016-Dec-02 12:33N 45°56' W 122°48'10 9.9
2016-Dec-02 11:34N 46°05' W 122°54'10 9.7
2016-Dec-02 10:34N 46°10' W 123°05'10 9.3
2016-Dec-02 09:27N 46°09' W 123°20'10 8.8
2016-Dec-02 08:17N 46°16' W 123°30'811.2
2016-Dec-02 07:34N 46°15' W 123°41'1010.4
2016-Dec-02 06:34N 46°12' W 123°55'9 9.2
2016-Dec-02 05:34N 46°13' W 124°09'8 8.2
2016-Dec-02 04:34N 46°14' W 124°20'1212.0
2016-Dec-02 03:34N 46°25' W 124°27'1211.6
2016-Dec-02 02:33N 46°36' W 124°33'1212.0
2016-Dec-02 01:34N 46°47' W 124°41'1211.6
2016-Dec-02 00:33N 46°58' W 124°47'1211.6
2016-Dec-01 23:32N 47°09' W 124°54'5811.3
2016-Dec-01 18:23N 48°05' W 125°16'910.9
2016-Dec-01 17:33N 48°14' W 125°13'1111.1
2016-Dec-01 16:34N 48°24' W 125°07'1010.0
2016-Dec-01 15:33N 48°31' W 124°56'8 8.2
2016-Dec-01 14:33N 48°30' W 124°44'8 8.1
2016-Dec-01 13:33N 48°27' W 124°32'8 8.5
2016-Dec-01 12:33N 48°24' W 124°21'8 8.4
2016-Dec-01 11:34N 48°21' W 124°09'8 8.1
2016-Dec-01 10:33N 48°18' W 123°58'8 8.2
2016-Dec-01 09:33N 48°16' W 123°46'8 8.2
2016-Dec-01 08:34N 48°15' W 123°33'1010.5
2016-Dec-01 07:33N 48°08' W 123°22'1312.2
2016-Dec-01 06:31N 48°16' W 123°07'1313.3
2016-Dec-01 05:33N 48°23' W 122°51'1313.2
2016-Dec-01 04:33N 48°31' W 122°36'1 1.1
2016-Dec-01 03:31N 48°31' W 122°34'0 0.0
2016-Dec-01 02:31N 48°31' W 122°34'0 0.1
2016-Dec-01 01:31N 48°31' W 122°34'0 0.1
2016-Dec-01 00:28N 48°31' W 122°34'0 0.1
2016-Nov-30 23:31N 48°31' W 122°34'0 0.0
2016-Nov-30 22:31N 48°31' W 122°34'0 0.0
2016-Nov-30 21:31N 48°31' W 122°34'0 0.0
2016-Nov-30 20:31N 48°31' W 122°34'0 0.1
2016-Nov-30 19:13N 48°31' W 122°34'0 0.3
2016-Nov-30 18:25N 48°31' W 122°34'0 0.0
2016-Nov-30 17:31N 48°31' W 122°34'0 0.1
2016-Nov-30 16:31N 48°31' W 122°34'0 0.0
2016-Nov-30 15:31N 48°31' W 122°34'0 0.0
2016-Nov-30 14:31N 48°31' W 122°34'0 0.0
2016-Nov-30 13:25N 48°31' W 122°34'0 0.0
2016-Nov-30 12:31N 48°31' W 122°34'0 0.0
2016-Nov-30 11:31N 48°31' W 122°34'0 0.0
2016-Nov-30 10:19N 48°31' W 122°34'0 0.1
2016-Nov-30 09:31N 48°31' W 122°34'0 0.3
2016-Nov-30 08:33N 48°31' W 122°35'0 0.3
2016-Nov-30 07:33N 48°31' W 122°35'0 0.0
2016-Nov-30 06:33N 48°31' W 122°35'0 0.0
2016-Nov-30 05:33N 48°31' W 122°35'0 0.0
2016-Nov-30 04:33N 48°31' W 122°35'0 0.0
2016-Nov-30 03:33N 48°31' W 122°35'0 0.0
2016-Nov-30 02:33N 48°31' W 122°35'0 0.0
2016-Nov-30 01:21N 48°31' W 122°35'0 0.0
2016-Nov-30 00:33N 48°31' W 122°35'0 0.0
2016-Nov-29 23:33N 48°31' W 122°35'0 0.0
2016-Nov-29 22:27N 48°31' W 122°35'0 0.0
2016-Nov-29 21:27N 48°31' W 122°35'0 0.0
2016-Nov-29 20:33N 48°31' W 122°35'0 0.0
2016-Nov-29 19:33N 48°31' W 122°35'0 0.0
2016-Nov-29 18:33N 48°31' W 122°35'0 0.0
2016-Nov-29 17:33N 48°31' W 122°35'0 0.0
2016-Nov-29 16:33N 48°31' W 122°35'0 0.0
2016-Nov-29 15:33N 48°31' W 122°35'0 0.0
2016-Nov-29 14:33N 48°31' W 122°35'0 0.0
2016-Nov-29 13:33N 48°31' W 122°35'0 0.0
2016-Nov-29 12:33N 48°31' W 122°35'0 0.0
2016-Nov-29 11:33N 48°31' W 122°35'0 0.0
2016-Nov-29 10:27N 48°31' W 122°35'0 0.0
2016-Nov-29 09:27N 48°31' W 122°35'0 0.0
2016-Nov-29 08:21N 48°31' W 122°35'0 0.0
2016-Nov-29 07:33N 48°31' W 122°35'0 0.0
2016-Nov-29 06:21N 48°31' W 122°35'0 0.0
2016-Nov-29 05:33N 48°31' W 122°35'0 0.0
2016-Nov-29 04:21N 48°31' W 122°35'0 0.0
2016-Nov-29 03:27N 48°31' W 122°35'0 0.0
2016-Nov-29 01:33N 48°31' W 122°35'0 0.0
2016-Nov-29 00:27N 48°31' W 122°35'0 0.0
2016-Nov-28 23:15N 48°31' W 122°35'0 0.0
2016-Nov-28 22:33N 48°31' W 122°35'0 0.0
2016-Nov-28 21:33N 48°31' W 122°35'0 0.0
2016-Nov-28 20:33N 48°31' W 122°35'0 0.0
2016-Nov-28 19:33N 48°31' W 122°35'0 0.0
2016-Nov-28 18:33N 48°31' W 122°35'0 0.0
2016-Nov-28 17:33N 48°31' W 122°35'0 0.0
2016-Nov-28 16:33N 48°31' W 122°35'0 0.0
2016-Nov-28 15:33N 48°31' W 122°35'0 0.0
2016-Nov-28 14:33N 48°31' W 122°35'0 0.0
2016-Nov-28 13:33N 48°31' W 122°35'0 0.0
2016-Nov-28 05:21N 48°31' W 122°35'0 0.0
2016-Nov-28 04:33N 48°31' W 122°35'0 0.0
2016-Nov-28 03:33N 48°31' W 122°35'0 0.0
2016-Nov-28 02:21N 48°31' W 122°35'0 0.0
2016-Nov-28 01:33N 48°31' W 122°35'0 0.0
2016-Nov-28 00:33N 48°31' W 122°35'0 0.0
2016-Nov-27 23:32N 48°31' W 122°35'0 0.0
2016-Nov-27 22:33N 48°31' W 122°35'0 0.0
2016-Nov-27 21:33N 48°31' W 122°35'1 0.7
2016-Nov-27 20:33N 48°31' W 122°34'0 0.1
2016-Nov-27 19:33N 48°31' W 122°34'0 0.0
2016-Nov-27 18:33N 48°31' W 122°34'0 0.0
2016-Nov-27 17:34N 48°31' W 122°34'0 0.0
2016-Nov-27 16:33N 48°31' W 122°34'0 0.1
2016-Nov-27 15:31N 48°31' W 122°34'0 0.0
2016-Nov-27 14:33N 48°31' W 122°34'0 0.0
2016-Nov-27 13:33N 48°31' W 122°34'0 0.0
2016-Nov-27 12:33N 48°31' W 122°34'0 0.0
2016-Nov-27 11:33N 48°31' W 122°34'0 0.1
2016-Nov-27 10:33N 48°31' W 122°34'0 0.1
2016-Nov-27 09:33N 48°31' W 122°34'0 0.1
2016-Nov-27 08:33N 48°31' W 122°34'0 0.0
2016-Nov-27 07:33N 48°31' W 122°34'0 0.2
2016-Nov-27 06:33N 48°31' W 122°34'0 0.1
2016-Nov-27 05:33N 48°31' W 122°34'0 0.0
2016-Nov-27 04:33N 48°31' W 122°34'0 0.0
2016-Nov-27 03:33N 48°31' W 122°34'0 0.0
2016-Nov-27 02:33N 48°31' W 122°34'0 0.2
2016-Nov-27 01:33N 48°31' W 122°34'0 0.1
2016-Nov-27 00:33N 48°31' W 122°34'0 0.0
2016-Nov-26 23:33N 48°31' W 122°34'0 0.0
2016-Nov-26 22:33N 48°31' W 122°34'0 0.1
2016-Nov-26 21:33N 48°31' W 122°34'0 0.2
2016-Nov-26 20:33N 48°31' W 122°34'0 0.0
2016-Nov-26 19:33N 48°31' W 122°34'0 0.0
2016-Nov-26 18:33N 48°31' W 122°34'0 0.0
2016-Nov-26 17:33N 48°31' W 122°34'0 0.0
2016-Nov-26 16:33N 48°31' W 122°34'0 0.1
2016-Nov-26 15:33N 48°31' W 122°34'0 0.1
2016-Nov-26 14:33N 48°31' W 122°34'0 0.0
2016-Nov-26 13:33N 48°31' W 122°34'0 0.0
2016-Nov-26 12:33N 48°31' W 122°34'0 0.0
2016-Nov-26 11:33N 48°31' W 122°34'0 0.0
2016-Nov-26 10:33N 48°31' W 122°34'0 0.0
2016-Nov-26 09:33N 48°31' W 122°34'0 0.1
2016-Nov-26 08:33N 48°31' W 122°34'0 0.0
2016-Nov-26 07:33N 48°31' W 122°34'0 0.0
2016-Nov-26 06:33N 48°31' W 122°34'0 0.1
2016-Nov-26 05:33N 48°31' W 122°34'0 0.1
2016-Nov-26 04:33N 48°31' W 122°34'0 0.0
2016-Nov-26 03:33N 48°31' W 122°34'0 0.0
2016-Nov-26 02:34N 48°31' W 122°34'0 0.0
2016-Nov-26 01:33N 48°31' W 122°34'0 0.0
2016-Nov-26 00:33N 48°31' W 122°34'0 0.1
2016-Nov-25 23:33N 48°31' W 122°34'0 0.0
2016-Nov-25 22:33N 48°31' W 122°34'0 0.1
2016-Nov-25 21:33N 48°31' W 122°34'0 0.0
2016-Nov-25 20:33N 48°31' W 122°34'0 0.0
2016-Nov-25 19:34N 48°31' W 122°34'0 0.0
2016-Nov-25 18:33N 48°31' W 122°34'0 0.1
2016-Nov-25 17:33N 48°31' W 122°34'0 0.0
2016-Nov-25 16:33N 48°31' W 122°34'0 0.0
2016-Nov-25 15:33N 48°31' W 122°34'0 0.0
2016-Nov-25 14:33N 48°31' W 122°34'0 0.0
2016-Nov-25 13:33N 48°31' W 122°34'0 0.1
2016-Nov-25 12:33N 48°31' W 122°34'0 0.1
2016-Nov-25 11:33N 48°31' W 122°34'0 0.0
2016-Nov-25 10:33N 48°31' W 122°34'0 0.0
2016-Nov-25 09:33N 48°31' W 122°34'0 0.0
2016-Nov-25 08:33N 48°31' W 122°34'0 0.0
2016-Nov-25 07:33N 48°31' W 122°34'0 0.0
2016-Nov-25 06:33N 48°31' W 122°34'0 0.1
2016-Nov-25 05:33N 48°31' W 122°34'0 0.0
2016-Nov-25 04:33N 48°31' W 122°34'0 0.0
2016-Nov-25 03:33N 48°31' W 122°34'0 0.0
2016-Nov-25 02:34N 48°31' W 122°34'  
Track history (hours):
 
Tides and Currents Weather Stations Pressure Air Temp Water Temp Dewpoint Dewpoint Depression Visibility Wind Speed Wind Dir Waves Ship Positions

Vision

Owner: INTREPID SHIP MANAGEMENT, JACKSONVILLE, FL. More information available from US FCC via Universal Licensing System and Coast Guard Vessel Documentation Center.

Last reported at 2016-Dec-05 01:34 UTC. Time now 2016-Dec-05 02:31 UTC.
Position N 45°50' W 124°34'.

Length 199 m; draft 7.9 m.

Type: Towing. MMSI: 366904000.

Date/timePositionNaut miles runAvg speedWind from/ knotsBaromVisibWave heightAir tempDewpointWater temp
2016-Dec-05 01:34N 45°50' W 124°34'1111.5
2016-Dec-05 00:34N 45°59' W 124°23'1211.8
2016-Dec-04 23:34N 46°08' W 124°13'9 9.0
2016-Dec-04 22:34N 46°15' W 124°05'10 9.8
2016-Dec-04 21:34N 46°12' W 123°51'1110.9
2016-Dec-04 20:34N 46°15' W 123°37'1010.0
2016-Dec-04 19:33N 46°10' W 123°25'1212.4
2016-Dec-04 18:34N 46°11' W 123°07'1212.1
2016-Dec-04 17:34N 46°03' W 122°53'1212.1
2016-Dec-04 16:34N 45°52' W 122°47'1312.5
2016-Dec-04 15:33N 45°40' W 122°46'3 3.2
2016-Dec-04 14:31N 45°36' W 122°47'0 0.0
2016-Dec-04 13:31N 45°36' W 122°47'0 0.0
2016-Dec-04 12:31N 45°36' W 122°47'0 0.0
2016-Dec-04 11:31N 45°36' W 122°47'0 0.0
2016-Dec-04 10:28N 45°36' W 122°47'0 0.0
2016-Dec-04 09:31N 45°36' W 122°47'0 0.0
2016-Dec-04 08:31N 45°36' W 122°47'0 0.0
2016-Dec-04 07:31N 45°36' W 122°47'0 0.0
2016-Dec-04 06:31N 45°36' W 122°47'0 0.0
2016-Dec-04 05:31N 45°36' W 122°47'0 0.0
2016-Dec-04 04:31N 45°36' W 122°47'0 0.0
2016-Dec-04 03:31N 45°36' W 122°47'0 0.0
2016-Dec-04 02:31N 45°36' W 122°47'0 0.0
2016-Dec-04 01:31N 45°36' W 122°47'0 0.0
2016-Dec-04 00:31N 45°36' W 122°47'0 0.0
2016-Dec-03 23:31N 45°36' W 122°47'0 0.0
2016-Dec-03 22:31N 45°36' W 122°47'0 0.0
2016-Dec-03 21:31N 45°36' W 122°47'0 0.0
2016-Dec-03 20:31N 45°36' W 122°47'0 0.0
2016-Dec-03 19:31N 45°36' W 122°47'0 0.0
2016-Dec-03 18:31N 45°36' W 122°47'0 0.0
2016-Dec-03 17:31N 45°36' W 122°47'0 0.0
2016-Dec-03 16:33N 45°36' W 122°47'0 0.0
2016-Dec-03 15:31N 45°36' W 122°47'0 0.0
2016-Dec-03 14:31N 45°36' W 122°47'0 0.0
2016-Dec-03 13:32N 45°36' W 122°47'0 0.0
2016-Dec-03 12:31N 45°36' W 122°47'0 0.0
2016-Dec-03 11:31N 45°36' W 122°47'0 0.0
2016-Dec-03 10:31N 45°36' W 122°47'3 2.8
2016-Dec-03 09:31N 45°34' W 122°44'0 0.2
2016-Dec-03 08:31N 45°34' W 122°44'0 0.0
2016-Dec-03 07:31N 45°34' W 122°44'0 0.0
2016-Dec-03 06:31N 45°34' W 122°44'0 0.0
2016-Dec-03 05:31N 45°34' W 122°44'0 0.0
2016-Dec-03 04:28N 45°34' W 122°44'0 0.0
2016-Dec-03 03:31N 45°34' W 122°44'0 0.0
2016-Dec-03 02:28N 45°34' W 122°44'0 0.0
2016-Dec-03 01:28N 45°34' W 122°44'0 0.0
2016-Dec-03 00:34N 45°34' W 122°44'0 0.0
2016-Dec-02 23:34N 45°34' W 122°44'0 0.0
2016-Dec-02 22:33N 45°34' W 122°44'0 0.0
2016-Dec-02 21:34N 45°34' W 122°44'0 0.0
2016-Dec-02 20:33N 45°34' W 122°44'0 0.0
2016-Dec-02 19:33N 45°34' W 122°44'0 0.0
2016-Dec-02 18:33N 45°34' W 122°44'0 0.0
2016-Dec-02 17:33N 45°34' W 122°44'0 0.3
2016-Dec-02 16:34N 45°34' W 122°44'2 2.1
2016-Dec-02 15:33N 45°36' W 122°47'1 1.0
2016-Dec-02 14:34N 45°37' W 122°47'9 9.1
2016-Dec-02 13:34N 45°46' W 122°46'1010.0
2016-Dec-02 12:33N 45°56' W 122°48'10 9.9
2016-Dec-02 11:34N 46°05' W 122°54'10 9.7
2016-Dec-02 10:34N 46°10' W 123°05'10 9.3
2016-Dec-02 09:27N 46°09' W 123°20'10 8.8
2016-Dec-02 08:17N 46°16' W 123°30'811.2
2016-Dec-02 07:34N 46°15' W 123°41'1010.4
2016-Dec-02 06:34N 46°12' W 123°55'9 9.2
2016-Dec-02 05:34N 46°13' W 124°09'8 8.2
2016-Dec-02 04:34N 46°14' W 124°20'1212.0
2016-Dec-02 03:34N 46°25' W 124°27'1211.6
2016-Dec-02 02:33N 46°36' W 124°33'1212.0
2016-Dec-02 01:34N 46°47' W 124°41'1211.6
2016-Dec-02 00:33N 46°58' W 124°47'1211.6
2016-Dec-01 23:32N 47°09' W 124°54'5811.3
2016-Dec-01 18:23N 48°05' W 125°16'910.9
2016-Dec-01 17:33N 48°14' W 125°13'1111.1
2016-Dec-01 16:34N 48°24' W 125°07'1010.0
2016-Dec-01 15:33N 48°31' W 124°56'8 8.2
2016-Dec-01 14:33N 48°30' W 124°44'8 8.1
2016-Dec-01 13:33N 48°27' W 124°32'8 8.5
2016-Dec-01 12:33N 48°24' W 124°21'8 8.4
2016-Dec-01 11:34N 48°21' W 124°09'8 8.1
2016-Dec-01 10:33N 48°18' W 123°58'8 8.2
2016-Dec-01 09:33N 48°16' W 123°46'8 8.2
2016-Dec-01 08:34N 48°15' W 123°33'1010.5
2016-Dec-01 07:33N 48°08' W 123°22'1312.2
2016-Dec-01 06:31N 48°16' W 123°07'1313.3
2016-Dec-01 05:33N 48°23' W 122°51'1313.2
2016-Dec-01 04:33N 48°31' W 122°36'1 1.1
2016-Dec-01 03:31N 48°31' W 122°34'0 0.0
2016-Dec-01 02:31N 48°31' W 122°34'0 0.1
2016-Dec-01 01:31N 48°31' W 122°34'0 0.1
2016-Dec-01 00:28N 48°31' W 122°34'0 0.1
2016-Nov-30 23:31N 48°31' W 122°34'0 0.0
2016-Nov-30 22:31N 48°31' W 122°34'0 0.0
2016-Nov-30 21:31N 48°31' W 122°34'0 0.0
2016-Nov-30 20:31N 48°31' W 122°34'0 0.1
2016-Nov-30 19:13N 48°31' W 122°34'0 0.3
2016-Nov-30 18:25N 48°31' W 122°34'0 0.0
2016-Nov-30 17:31N 48°31' W 122°34'0 0.1
2016-Nov-30 16:31N 48°31' W 122°34'0 0.0
2016-Nov-30 15:31N 48°31' W 122°34'0 0.0
2016-Nov-30 14:31N 48°31' W 122°34'0 0.0
2016-Nov-30 13:25N 48°31' W 122°34'0 0.0
2016-Nov-30 12:31N 48°31' W 122°34'0 0.0
2016-Nov-30 11:31N 48°31' W 122°34'0 0.0
2016-Nov-30 10:19N 48°31' W 122°34'0 0.1
2016-Nov-30 09:31N 48°31' W 122°34'0 0.3
2016-Nov-30 08:33N 48°31' W 122°35'0 0.3
2016-Nov-30 07:33N 48°31' W 122°35'0 0.0
2016-Nov-30 06:33N 48°31' W 122°35'0 0.0
2016-Nov-30 05:33N 48°31' W 122°35'0 0.0
2016-Nov-30 04:33N 48°31' W 122°35'0 0.0
2016-Nov-30 03:33N 48°31' W 122°35'0 0.0
2016-Nov-30 02:33N 48°31' W 122°35'0 0.0
2016-Nov-30 01:21N 48°31' W 122°35'0 0.0
2016-Nov-30 00:33N 48°31' W 122°35'0 0.0
2016-Nov-29 23:33N 48°31' W 122°35'0 0.0
2016-Nov-29 22:27N 48°31' W 122°35'0 0.0
2016-Nov-29 21:27N 48°31' W 122°35'0 0.0
2016-Nov-29 20:33N 48°31' W 122°35'0 0.0
2016-Nov-29 19:33N 48°31' W 122°35'0 0.0
2016-Nov-29 18:33N 48°31' W 122°35'0 0.0
2016-Nov-29 17:33N 48°31' W 122°35'0 0.0
2016-Nov-29 16:33N 48°31' W 122°35'0 0.0
2016-Nov-29 15:33N 48°31' W 122°35'0 0.0
2016-Nov-29 14:33N 48°31' W 122°35'0 0.0
2016-Nov-29 13:33N 48°31' W 122°35'0 0.0
2016-Nov-29 12:33N 48°31' W 122°35'0 0.0
2016-Nov-29 11:33N 48°31' W 122°35'0 0.0
2016-Nov-29 10:27N 48°31' W 122°35'0 0.0
2016-Nov-29 09:27N 48°31' W 122°35'0 0.0
2016-Nov-29 08:21N 48°31' W 122°35'0 0.0
2016-Nov-29 07:33N 48°31' W 122°35'0 0.0
2016-Nov-29 06:21N 48°31' W 122°35'0 0.0
2016-Nov-29 05:33N 48°31' W 122°35'0 0.0
2016-Nov-29 04:21N 48°31' W 122°35'0 0.0
2016-Nov-29 03:27N 48°31' W 122°35'0 0.0
2016-Nov-29 01:33N 48°31' W 122°35'0 0.0
2016-Nov-29 00:27N 48°31' W 122°35'0 0.0
2016-Nov-28 23:15N 48°31' W 122°35'0 0.0
2016-Nov-28 22:33N 48°31' W 122°35'0 0.0
2016-Nov-28 21:33N 48°31' W 122°35'0 0.0
2016-Nov-28 20:33N 48°31' W 122°35'0 0.0
2016-Nov-28 19:33N 48°31' W 122°35'0 0.0
2016-Nov-28 18:33N 48°31' W 122°35'0 0.0
2016-Nov-28 17:33N 48°31' W 122°35'0 0.0
2016-Nov-28 16:33N 48°31' W 122°35'0 0.0
2016-Nov-28 15:33N 48°31' W 122°35'0 0.0
2016-Nov-28 14:33N 48°31' W 122°35'0 0.0
2016-Nov-28 13:33N 48°31' W 122°35'0 0.0
2016-Nov-28 05:21N 48°31' W 122°35'0 0.0
2016-Nov-28 04:33N 48°31' W 122°35'0 0.0
2016-Nov-28 03:33N 48°31' W 122°35'0 0.0
2016-Nov-28 02:21N 48°31' W 122°35'0 0.0
2016-Nov-28 01:33N 48°31' W 122°35'0 0.0
2016-Nov-28 00:33N 48°31' W 122°35'0 0.0
2016-Nov-27 23:32N 48°31' W 122°35'0 0.0
2016-Nov-27 22:33N 48°31' W 122°35'0 0.0
2016-Nov-27 21:33N 48°31' W 122°35'1 0.7
2016-Nov-27 20:33N 48°31' W 122°34'0 0.1
2016-Nov-27 19:33N 48°31' W 122°34'0 0.0
2016-Nov-27 18:33N 48°31' W 122°34'0 0.0
2016-Nov-27 17:34N 48°31' W 122°34'0 0.0
2016-Nov-27 16:33N 48°31' W 122°34'0 0.1
2016-Nov-27 15:31N 48°31' W 122°34'0 0.0
2016-Nov-27 14:33N 48°31' W 122°34'0 0.0
2016-Nov-27 13:33N 48°31' W 122°34'0 0.0
2016-Nov-27 12:33N 48°31' W 122°34'0 0.0
2016-Nov-27 11:33N 48°31' W 122°34'0 0.1
2016-Nov-27 10:33N 48°31' W 122°34'0 0.1
2016-Nov-27 09:33N 48°31' W 122°34'0 0.1
2016-Nov-27 08:33N 48°31' W 122°34'0 0.0
2016-Nov-27 07:33N 48°31' W 122°34'0 0.2
2016-Nov-27 06:33N 48°31' W 122°34'0 0.1
2016-Nov-27 05:33N 48°31' W 122°34'0 0.0
2016-Nov-27 04:33N 48°31' W 122°34'0 0.0
2016-Nov-27 03:33N 48°31' W 122°34'0 0.0
2016-Nov-27 02:33N 48°31' W 122°34'0 0.2
2016-Nov-27 01:33N 48°31' W 122°34'0 0.1
2016-Nov-27 00:33N 48°31' W 122°34'0 0.0
2016-Nov-26 23:33N 48°31' W 122°34'0 0.0
2016-Nov-26 22:33N 48°31' W 122°34'0 0.1
2016-Nov-26 21:33N 48°31' W 122°34'0 0.2
2016-Nov-26 20:33N 48°31' W 122°34'0 0.0
2016-Nov-26 19:33N 48°31' W 122°34'0 0.0
2016-Nov-26 18:33N 48°31' W 122°34'0 0.0
2016-Nov-26 17:33N 48°31' W 122°34'0 0.0
2016-Nov-26 16:33N 48°31' W 122°34'0 0.1
2016-Nov-26 15:33N 48°31' W 122°34'0 0.1
2016-Nov-26 14:33N 48°31' W 122°34'0 0.0
2016-Nov-26 13:33N 48°31' W 122°34'0 0.0
2016-Nov-26 12:33N 48°31' W 122°34'0 0.0
2016-Nov-26 11:33N 48°31' W 122°34'0 0.0
2016-Nov-26 10:33N 48°31' W 122°34'0 0.0
2016-Nov-26 09:33N 48°31' W 122°34'0 0.1
2016-Nov-26 08:33N 48°31' W 122°34'0 0.0
2016-Nov-26 07:33N 48°31' W 122°34'0 0.0
2016-Nov-26 06:33N 48°31' W 122°34'0 0.1
2016-Nov-26 05:33N 48°31' W 122°34'0 0.1
2016-Nov-26 04:33N 48°31' W 122°34'0 0.0
2016-Nov-26 03:33N 48°31' W 122°34'0 0.0
2016-Nov-26 02:34N 48°31' W 122°34'0 0.0
2016-Nov-26 01:33N 48°31' W 122°34'0 0.0
2016-Nov-26 00:33N 48°31' W 122°34'0 0.1
2016-Nov-25 23:33N 48°31' W 122°34'0 0.0
2016-Nov-25 22:33N 48°31' W 122°34'0 0.1
2016-Nov-25 21:33N 48°31' W 122°34'0 0.0
2016-Nov-25 20:33N 48°31' W 122°34'0 0.0
2016-Nov-25 19:34N 48°31' W 122°34'0 0.0
2016-Nov-25 18:33N 48°31' W 122°34'0 0.1
2016-Nov-25 17:33N 48°31' W 122°34'0 0.0
2016-Nov-25 16:33N 48°31' W 122°34'0 0.0
2016-Nov-25 15:33N 48°31' W 122°34'0 0.0
2016-Nov-25 14:33N 48°31' W 122°34'0 0.0
2016-Nov-25 13:33N 48°31' W 122°34'0 0.1
2016-Nov-25 12:33N 48°31' W 122°34'0 0.1
2016-Nov-25 11:33N 48°31' W 122°34'0 0.0
2016-Nov-25 10:33N 48°31' W 122°34'0 0.0
2016-Nov-25 09:33N 48°31' W 122°34'0 0.0
2016-Nov-25 08:33N 48°31' W 122°34'0 0.0
2016-Nov-25 07:33N 48°31' W 122°34'0 0.0
2016-Nov-25 06:33N 48°31' W 122°34'0 0.1
2016-Nov-25 05:33N 48°31' W 122°34'0 0.0
2016-Nov-25 04:33N 48°31' W 122°34'0 0.0
2016-Nov-25 03:33N 48°31' W 122°34'0 0.0
2016-Nov-25 02:34N 48°31' W 122°34'  

Dump ship's entire track history